Time;durP1;ratioP1;P1;durP2;ratioP2;P2;SDS_P1;SDS_P2;PMS_P1;PMS_P2;Temp;Humidity;BMP_temperature;BMP_pressure;BME280_temperature;BME280_humidity;BME280_pressure;Samples;Min_cycle;Max_cycle;Signal;HPM_P1;HPM_P2
2023/06/22 00:01:46;;;;;;;5.43;3.80;;;;;;;22.86;53.54;101771.31;5074226;28;20039;-61
2023/06/22 00:04:11;;;;;;;6.25;3.53;;;;;;;22.91;53.25;101768.41;5065098;28;20065;-61
2023/06/22 00:06:36;;;;;;;7.25;3.72;;;;;;;22.86;53.14;101757.16;5061859;28;20033;-61
2023/06/22 00:09:01;;;;;;;5.45;4.00;;;;;;;22.85;53.38;101752.66;5069960;28;20032;-61
2023/06/22 00:11:27;;;;;;;6.95;3.90;;;;;;;22.79;53.59;101760.41;5068686;28;20032;-60
2023/06/22 00:13:53;;;;;;;6.25;3.53;;;;;;;22.82;53.34;101765.44;5085126;28;20028;-61
2023/06/22 00:16:18;;;;;;;4.55;4.07;;;;;;;22.74;53.55;101766.16;5053169;28;1036027;-61
2023/06/22 00:18:46;;;;;;;4.88;4.30;;;;;;;22.71;53.45;101758.28;5082828;28;20111;-61
2023/06/22 00:21:12;;;;;;;6.00;4.40;;;;;;;22.65;53.71;101754.75;5069687;28;20037;-61
2023/06/22 00:23:37;;;;;;;7.07;4.57;;;;;;;22.67;53.79;101758.06;5060761;28;20031;-61
2023/06/22 00:26:03;;;;;;;5.13;4.30;;;;;;;22.69;53.25;101769.94;5050413;28;20032;-60
2023/06/22 00:28:28;;;;;;;7.18;4.68;;;;;;;22.66;53.01;101767.72;5049607;28;20502;-60
2023/06/22 00:30:54;;;;;;;6.28;4.75;;;;;;;22.64;53.27;101766.38;5089006;28;20081;-61
2023/06/22 00:33:19;;;;;;;5.70;5.15;;;;;;;22.59;53.53;101761.63;5089578;28;20364;-61
2023/06/22 00:35:45;;;;;;;7.00;5.50;;;;;;;22.53;53.69;101762.91;5083451;28;20075;-60
2023/06/22 00:38:11;;;;;;;5.97;4.57;;;;;;;22.57;53.88;101758.28;5068690;28;20047;-61
2023/06/22 00:40:37;;;;;;;6.97;5.20;;;;;;;22.57;53.31;101752.63;5058575;28;20492;-60
2023/06/22 00:43:02;;;;;;;6.68;5.00;;;;;;;22.50;53.75;101752.19;5069946;28;20033;-60
2023/06/22 00:45:28;;;;;;;5.95;5.35;;;;;;;22.51;53.67;101751.03;5069165;28;20094;-60
2023/06/22 00:47:57;;;;;;;5.35;4.85;;;;;;;22.54;53.82;101750.44;5069716;28;20016;-61
2023/06/22 00:50:25;;;;;;;5.93;5.13;;;;;;;22.53;53.83;101762.91;5078135;28;20028;-61
2023/06/22 00:52:54;;;;;;;7.82;5.57;;;;;;;22.39;54.09;101754.38;5068486;28;20033;-61
2023/06/22 00:55:21;;;;;;;5.90;5.30;;;;;;;22.43;54.15;101754.59;5069975;28;20027;-61
2023/06/22 00:57:50;;;;;;;6.53;4.90;;;;;;;22.46;54.19;101752.00;5057108;28;20393;-61
2023/06/22 01:00:19;;;;;;;6.70;5.50;;;;;;;22.40;54.36;101755.22;5048851;28;20471;-60
2023/06/22 01:02:46;;;;;;;8.98;5.72;;;;;;;22.38;54.32;101749.03;5066203;28;20173;-60
2023/06/22 01:05:13;;;;;;;9.60;5.00;;;;;;;22.42;54.54;101741.59;5070072;28;20448;-60
2023/06/22 01:08:05;;;;;;;8.60;6.07;;;;;;;22.34;54.39;101743.16;5065555;28;20412;-61
2023/06/22 01:11:05;;;;;;;6.25;4.18;;;;;;;22.45;54.07;101743.81;5081282;28;20064;-60
2023/06/22 01:13:46;;;;;;;6.32;5.72;;;;;;;22.36;54.30;101745.66;5055376;28;20059;-61
2023/06/22 01:16:21;;;;;;;6.53;5.10;;;;;;;22.39;54.54;101745.06;5077937;28;20540;-61
2023/06/22 01:18:50;;;;;;;7.80;6.95;;;;;;;22.33;54.58;101744.31;5088982;28;20075;-61
2023/06/22 01:21:18;;;;;;;6.90;6.03;;;;;;;22.29;54.70;101754.59;5092511;28;20020;-60
2023/06/22 01:23:58;;;;;;;5.88;5.30;;;;;;;22.27;54.69;101748.38;5082070;28;20047;-61
2023/06/22 01:26:38;;;;;;;7.20;6.50;;;;;;;22.23;54.97;101751.00;5073242;28;20028;-60
2023/06/22 01:29:05;;;;;;;7.53;5.57;;;;;;;22.24;55.03;101760.31;5081147;28;20036;-61
2023/06/22 01:31:32;;;;;;;9.00;6.90;;;;;;;22.15;55.23;101757.34;5072637;28;20028;-61
2023/06/22 01:34:00;;;;;;;10.55;6.80;;;;;;;22.16;55.36;101755.38;5052219;28;20047;-61
2023/06/22 01:36:27;;;;;;;7.10;6.40;;;;;;;22.17;55.53;101749.41;5052943;28;20028;-61
2023/06/22 01:38:53;;;;;;;7.78;6.80;;;;;;;22.08;55.79;101745.56;5052429;28;20033;-60
2023/06/22 01:41:20;;;;;;;8.40;6.93;;;;;;;22.09;55.71;101741.63;5052178;28;20124;-61
2023/06/22 01:43:46;;;;;;;7.32;6.57;;;;;;;22.08;56.02;101739.91;5059089;28;20020;-61
2023/06/22 01:46:12;;;;;;;12.30;7.00;;;;;;;22.01;55.93;101731.84;5068558;28;20111;-61
2023/06/22 01:48:39;;;;;;;8.98;6.93;;;;;;;22.03;55.78;101746.50;5057692;28;20024;-61
2023/06/22 01:51:04;;;;;;;9.05;6.80;;;;;;;22.03;55.98;101742.84;5071444;28;20031;-61
2023/06/22 01:53:29;;;;;;;8.65;6.53;;;;;;;22.05;55.83;101743.38;5081182;28;20028;-61
2023/06/22 01:55:56;;;;;;;7.60;6.80;;;;;;;21.99;55.86;101742.63;5091575;28;20027;-61
2023/06/22 01:58:25;;;;;;;7.30;6.45;;;;;;;22.00;56.10;101738.63;5092750;28;20105;-61
2023/06/22 02:01:10;;;;;;;12.07;6.85;;;;;;;22.06;55.74;101742.22;5061750;28;20046;-61
2023/06/22 02:03:41;;;;;;;7.90;6.55;;;;;;;22.04;56.16;101734.03;5058019;28;20122;-61
2023/06/22 02:06:11;;;;;;;7.55;6.80;;;;;;;22.00;56.18;101729.31;5058801;28;20029;-61
2023/06/22 02:08:42;;;;;;;8.00;6.65;;;;;;;22.00;56.32;101724.50;5074749;28;20103;-61
2023/06/22 02:11:10;;;;;;;8.00;6.28;;;;;;;22.07;56.03;101729.75;5070167;28;20032;-61
2023/06/22 02:13:37;;;;;;;9.82;7.38;;;;;;;22.02;56.18;101735.50;5064469;28;20028;-61
2023/06/22 02:16:03;;;;;;;8.27;6.55;;;;;;;22.03;56.13;101735.19;5072758;28;20052;-61
2023/06/22 02:18:28;;;;;;;7.05;6.35;;;;;;;21.98;56.47;101728.81;5064415;28;20788;-61
2023/06/22 02:20:54;;;;;;;9.15;7.15;;;;;;;22.00;56.18;101734.97;5080439;28;20028;-61
2023/06/22 02:23:19;;;;;;;8.23;7.20;;;;;;;21.95;56.47;101735.06;5091582;28;20487;-61
2023/06/22 02:25:45;;;;;;;32.42;9.55;;;;;;;21.88;57.08;101734.63;5090888;28;20028;-61
2023/06/22 02:28:10;;;;;;;11.70;8.63;;;;;;;21.80;57.05;101725.69;5083765;28;20024;-61
2023/06/22 02:30:35;;;;;;;8.75;7.82;;;;;;;21.84;57.08;101722.25;5070199;28;20035;-61
2023/06/22 02:33:01;;;;;;;9.73;7.68;;;;;;;21.76;57.04;101727.44;5065670;28;20477;-61
2023/06/22 02:35:31;;;;;;;8.93;8.13;;;;;;;21.74;57.26;101723.28;5050238;28;20498;-61
2023/06/22 02:37:57;;;;;;;9.73;8.27;;;;;;;21.76;57.17;101720.97;5061729;28;20047;-61
2023/06/22 02:40:22;;;;;;;7.70;6.90;;;;;;;21.86;56.95;101714.31;5062938;28;20020;-61
2023/06/22 02:42:47;;;;;;;9.20;8.13;;;;;;;21.81;57.11;101718.03;5076161;28;20487;-61
2023/06/22 02:45:13;;;;;;;9.30;8.32;;;;;;;21.79;57.21;101715.53;5077423;28;20075;-61
2023/06/22 02:47:38;;;;;;;11.20;9.85;;;;;;;21.66;57.44;101707.84;5063676;28;20036;-61
2023/06/22 02:50:04;;;;;;;9.55;8.63;;;;;;;21.65;57.61;101703.31;5056221;28;20063;-61
2023/06/22 02:52:29;;;;;;;9.43;8.43;;;;;;;21.70;57.57;101708.09;5054310;28;20036;-61
2023/06/22 02:54:54;;;;;;;10.32;8.73;;;;;;;21.70;57.39;101710.91;5052999;28;20438;-61
2023/06/22 02:57:20;;;;;;;10.85;7.75;;;;;;;21.76;57.49;101706.84;5065205;28;20395;-61
2023/06/22 02:59:45;;;;;;;9.63;8.35;;;;;;;21.74;57.44;101701.50;5085692;28;20033;-61
2023/06/22 03:02:11;;;;;;;11.80;7.65;;;;;;;21.77;57.38;101705.69;5056689;28;20033;-61
2023/06/22 03:04:36;;;;;;;13.75;9.57;;;;;;;21.67;57.21;101703.88;5080261;28;20029;-61
2023/06/22 03:07:02;;;;;;;11.00;9.82;;;;;;;21.65;57.77;101692.03;5068274;28;20067;-61
2023/06/22 03:09:28;;;;;;;12.63;9.13;;;;;;;21.63;57.74;101693.50;5063072;28;20039;-61
2023/06/22 03:11:54;;;;;;;8.55;7.70;;;;;;;21.65;57.56;101689.19;5058308;28;20398;-61
2023/06/22 03:14:19;;;;;;;12.02;10.68;;;;;;;21.58;57.79;101693.59;5070139;28;20109;-61
2023/06/22 03:16:44;;;;;;;12.10;9.98;;;;;;;21.61;57.83;101684.47;5069798;28;20479;-61
2023/06/22 03:19:10;;;;;;;11.57;10.38;;;;;;;21.53;58.55;101683.19;5049959;28;20029;-61
2023/06/22 03:21:38;;;;;;;12.30;8.93;;;;;;;21.59;57.88;101684.78;5054216;28;20025;-62
2023/06/22 03:24:04;;;;;;;14.25;10.48;;;;;;;21.56;58.08;101676.94;5067642;28;20032;-62
2023/06/22 03:26:29;;;;;;;10.13;9.00;;;;;;;21.59;57.93;101673.50;5067486;28;20024;-61
2023/06/22 03:28:55;;;;;;;13.88;11.45;;;;;;;21.52;58.30;101665.41;5071099;28;20028;-62
2023/06/22 03:31:21;;;;;;;10.88;9.77;;;;;;;21.58;58.28;101671.81;5069222;28;20468;-61
2023/06/22 03:33:48;;;;;;;13.05;11.48;;;;;;;21.53;58.31;101672.72;5069905;28;20528;-61
2023/06/22 03:36:16;;;;;;;14.70;11.77;;;;;;;21.53;58.13;101669.06;5071205;28;20021;-61
2023/06/22 03:38:41;;;;;;;11.40;9.75;;;;;;;21.57;58.12;101684.25;5060184;28;20260;-61
2023/06/22 03:41:06;;;;;;;13.90;12.15;;;;;;;21.45;58.38;101675.41;5049927;28;20033;-61
2023/06/22 03:43:32;;;;;;;11.73;10.50;;;;;;;21.51;58.31;101672.22;5051338;28;20047;-61
2023/06/22 03:45:58;;;;;;;13.82;12.13;;;;;;;21.50;58.15;101672.53;5063274;28;20435;-61
2023/06/22 03:48:23;;;;;;;14.63;12.95;;;;;;;21.47;58.41;101662.66;5070800;28;20028;-61
2023/06/22 03:50:48;;;;;;;13.52;12.20;;;;;;;21.48;58.39;101666.34;5050095;28;20493;-62
2023/06/22 03:53:14;;;;;;;15.13;12.82;;;;;;;21.47;58.52;101673.13;5053875;28;20555;-61
2023/06/22 03:55:49;;;;;;;11.57;8.65;;;;;;;21.51;58.24;101662.91;5059936;28;20031;-61
2023/06/22 03:58:14;;;;;;;11.80;10.55;;;;;;;21.49;58.33;101665.19;5068677;28;20055;-61
2023/06/22 04:00:39;;;;;;;13.35;11.63;;;;;;;21.43;58.57;101655.97;5072736;28;20551;-62
2023/06/22 04:03:07;;;;;;;16.00;13.45;;;;;;;21.36;58.67;101657.50;5075951;28;20396;-61
2023/06/22 04:05:32;;;;;;;16.08;12.80;;;;;;;21.39;58.75;101654.06;5088567;28;20031;-61
2023/06/22 04:07:58;;;;;;;13.43;10.07;;;;;;;21.44;58.56;101662.44;5090356;28;20024;-61
2023/06/22 04:10:23;;;;;;;15.52;12.57;;;;;;;21.40;58.97;101662.22;5077748;28;20087;-61
2023/06/22 04:12:48;;;;;;;14.48;12.95;;;;;;;21.35;58.97;101659.47;5070552;28;20032;-61
2023/06/22 04:15:14;;;;;;;12.02;10.80;;;;;;;21.45;58.94;101659.31;5062773;28;20826;-62
2023/06/22 04:17:39;;;;;;;10.82;9.55;;;;;;;21.49;58.70;101665.19;5069260;28;20107;-61
2023/06/22 04:20:06;;;;;;;14.50;11.18;;;;;;;21.48;58.81;101657.84;5070462;28;20029;-61
2023/06/22 04:22:31;;;;;;;15.23;12.15;;;;;;;21.41;58.72;101655.41;5068800;28;20044;-61
2023/06/22 04:24:57;;;;;;;12.60;11.18;;;;;;;21.44;58.59;101665.28;5069502;28;20036;-61
2023/06/22 04:27:23;;;;;;;14.00;11.38;;;;;;;21.44;58.77;101668.94;5070251;28;20593;-61
2023/06/22 04:29:48;;;;;;;12.52;10.68;;;;;;;21.44;58.84;101663.28;5069587;28;20338;-61
2023/06/22 04:32:17;;;;;;;10.90;9.40;;;;;;;21.49;58.67;101663.19;5061085;28;20479;-61
2023/06/22 04:34:43;;;;;;;15.35;13.27;;;;;;;21.46;58.84;101671.47;5069849;28;20581;-61
2023/06/22 04:37:08;;;;;;;14.85;13.45;;;;;;;21.47;58.81;101667.50;5068921;28;20095;-61
2023/06/22 04:39:33;;;;;;;14.95;13.45;;;;;;;21.46;58.71;101666.66;5069094;28;20024;-61
2023/06/22 04:42:02;;;;;;;15.50;13.90;;;;;;;21.37;58.99;101664.81;5069824;28;20032;-60
2023/06/22 04:44:27;;;;;;;11.10;10.00;;;;;;;21.51;58.64;101668.56;5069026;28;20028;-61
2023/06/22 04:46:59;;;;;;;10.68;9.00;;;;;;;21.51;58.83;101671.38;5070156;28;20028;-61
2023/06/22 04:49:32;;;;;;;;;;;;;;;21.65;57.73;101675.06;5066897;28;20485;-62
2023/06/22 04:51:57;;;;;;;13.25;11.80;;;;;;;21.54;58.62;101676.41;5069636;28;20364;-62
2023/06/22 04:54:23;;;;;;;13.25;11.82;;;;;;;21.56;58.59;101668.47;5073441;28;20039;-60
2023/06/22 04:56:56;;;;;;;14.77;13.23;;;;;;;21.47;58.94;101668.31;5073616;28;20425;-59
2023/06/22 04:59:21;;;;;;;15.95;13.35;;;;;;;21.48;59.01;101658.69;5071478;28;20412;-60
2023/06/22 05:01:46;;;;;;;17.30;13.57;;;;;;;21.51;58.85;101674.19;5067820;28;20051;-60
2023/06/22 05:04:12;;;;;;;15.35;12.60;;;;;;;21.52;58.91;101668.22;5073618;28;20028;-61
2023/06/22 05:06:38;;;;;;;16.77;15.15;;;;;;;21.39;59.22;101666.19;5072225;28;20033;-61
2023/06/22 05:09:03;;;;;;;16.10;14.13;;;;;;;21.38;59.22;101663.66;5073719;28;20476;-61
2023/06/22 05:11:29;;;;;;;17.25;15.07;;;;;;;21.36;59.22;101655.50;5073118;28;20392;-61
2023/06/22 05:13:55;;;;;;;12.77;11.45;;;;;;;21.45;59.13;101655.66;5072757;28;20119;-61
2023/06/22 05:16:25;;;;;;;16.30;14.38;;;;;;;21.42;59.59;101664.72;5075720;28;20048;-61
2023/06/22 05:18:54;;;;;;;15.80;14.10;;;;;;;21.46;59.47;101663.00;5057665;28;20036;-61
2023/06/22 05:21:25;;;;;;;18.17;14.90;;;;;;;21.44;59.62;101670.91;5072931;28;20024;-62
2023/06/22 05:23:53;;;;;;;17.55;14.48;;;;;;;21.49;59.61;101674.50;5092831;28;20031;-61
2023/06/22 05:26:20;;;;;;;17.45;15.65;;;;;;;21.46;59.85;101666.66;5080364;28;20093;-61
2023/06/22 05:28:46;;;;;;;20.13;15.27;;;;;;;21.45;59.81;101666.94;5091364;28;20498;-61
2023/06/22 05:31:16;;;;;;;17.65;15.68;;;;;;;21.51;59.98;101668.56;5088717;28;20028;-61
2023/06/22 05:33:42;;;;;;;19.77;17.58;;;;;;;21.47;60.27;101659.00;5066661;28;20024;-61
2023/06/22 05:36:08;;;;;;;20.63;17.27;;;;;;;21.50;60.52;101655.59;5072100;28;20854;-61
2023/06/22 05:38:34;;;;;;;20.10;15.77;;;;;;;21.56;60.00;101651.50;5072399;28;20051;-61
2023/06/22 05:41:00;;;;;;;20.38;16.20;;;;;;;21.55;60.59;101653.50;5072162;28;20025;-61
2023/06/22 05:43:25;;;;;;;24.88;18.08;;;;;;;21.48;60.84;101649.38;5072418;28;20484;-61
2023/06/22 05:45:53;;;;;;;20.02;17.00;;;;;;;21.52;60.70;101647.63;5071432;28;20051;-60
2023/06/22 05:48:18;;;;;;;20.35;17.83;;;;;;;21.49;60.86;101656.72;5071871;28;20032;-60
2023/06/22 05:50:44;;;;;;;20.02;18.00;;;;;;;21.48;61.18;101664.34;5069580;28;20073;-61
2023/06/22 05:53:09;;;;;;;19.67;15.98;;;;;;;21.56;61.11;101659.97;5072739;28;20025;-61
2023/06/22 05:55:35;;;;;;;18.48;16.50;;;;;;;21.59;60.75;101658.53;5071456;28;20036;-61
2023/06/22 05:58:00;;;;;;;21.30;18.30;;;;;;;21.60;61.09;101665.84;5069670;28;20037;-61
2023/06/22 06:00:25;;;;;;;23.27;18.98;;;;;;;21.59;61.15;101653.72;5063736;28;20330;-61
2023/06/22 06:02:51;;;;;;;20.60;17.02;;;;;;;21.65;61.00;101658.13;5057277;28;20032;-61
2023/06/22 06:05:16;;;;;;;20.52;18.42;;;;;;;21.68;60.99;101666.00;5062518;28;20032;-61
2023/06/22 06:07:42;;;;;;;19.50;15.73;;;;;;;21.72;60.92;101666.22;5052294;28;20501;-61
2023/06/22 06:10:09;;;;;;;19.92;17.85;;;;;;;21.59;61.91;101655.72;5053527;28;20020;-61
2023/06/22 06:12:35;;;;;;;20.55;18.17;;;;;;;21.64;61.54;101659.28;5070486;28;20124;-62
2023/06/22 06:15:00;;;;;;;22.15;19.35;;;;;;;21.65;61.65;101648.81;5071371;28;20127;-61
2023/06/22 06:17:25;;;;;;;20.52;17.27;;;;;;;21.69;61.46;101641.41;5071307;28;20024;-62
2023/06/22 06:19:51;;;;;;;22.30;19.83;;;;;;;21.63;61.72;101640.66;5067258;28;20025;-61
2023/06/22 06:22:16;;;;;;;17.23;12.88;;;;;;;21.78;61.15;101640.41;5071329;28;20526;-61
2023/06/22 06:24:45;;;;;;;19.95;17.85;;;;;;;21.80;61.56;101648.56;5079857;28;20032;-61
2023/06/22 06:27:10;;;;;;;19.83;17.48;;;;;;;21.82;61.96;101654.75;5072670;28;20027;-61
2023/06/22 06:29:36;;;;;;;22.63;20.23;;;;;;;21.77;61.55;101650.03;5069195;28;20028;-62
2023/06/22 06:32:02;;;;;;;20.08;17.83;;;;;;;21.84;61.56;101643.97;5071232;28;20134;-63
2023/06/22 06:34:27;;;;;;;21.00;17.58;;;;;;;21.80;61.49;101649.38;5062350;28;20502;-63
2023/06/22 06:36:52;;;;;;;21.92;19.55;;;;;;;21.76;61.96;101651.16;5063565;28;20028;-61
2023/06/22 06:39:18;;;;;;;25.38;19.02;;;;;;;21.75;62.15;101652.31;5073677;28;20392;-63
2023/06/22 06:41:43;;;;;;;21.33;18.95;;;;;;;21.77;62.03;101651.97;5072062;28;20067;-63
2023/06/22 06:44:08;;;;;;;19.58;17.15;;;;;;;21.81;61.73;101645.44;5066291;28;20056;-63
2023/06/22 06:46:34;;;;;;;23.33;18.60;;;;;;;21.77;62.32;101652.84;5074902;28;20016;-63
2023/06/22 06:48:59;;;;;;;17.67;15.13;;;;;;;21.86;61.87;101644.50;5065624;28;20033;-63
2023/06/22 06:51:24;;;;;;;13.77;11.30;;;;;;;21.94;61.74;101655.09;5052168;28;20025;-62
2023/06/22 06:53:50;;;;;;;20.95;18.80;;;;;;;21.91;61.86;101655.69;5051160;28;20036;-62
2023/06/22 06:56:16;;;;;;;14.02;12.63;;;;;;;21.98;61.53;101652.47;5066236;28;20091;-63
2023/06/22 06:58:42;;;;;;;18.80;16.08;;;;;;;21.99;61.70;101654.97;5057460;28;20032;-63
2023/06/22 07:01:08;;;;;;;25.80;19.08;;;;;;;21.97;61.93;101653.63;5064010;28;20036;-62
2023/06/22 07:03:33;;;;;;;19.65;17.65;;;;;;;21.94;61.90;101648.59;5049963;28;20075;-62
2023/06/22 07:06:01;;;;;;;15.88;13.02;;;;;;;22.02;61.57;101645.88;5057192;28;20020;-62
2023/06/22 07:08:26;;;;;;;19.02;17.02;;;;;;;22.02;61.41;101648.72;5069970;28;20486;-62
2023/06/22 07:10:52;;;;;;;14.68;12.10;;;;;;;22.09;61.46;101651.16;5051526;28;20037;-63
2023/06/22 07:13:18;;;;;;;18.48;16.00;;;;;;;22.07;61.41;101650.59;5058962;28;20025;-63
2023/06/22 07:15:43;;;;;;;21.38;18.98;;;;;;;22.06;61.75;101646.94;5050292;28;20110;-62
2023/06/22 07:18:08;;;;;;;21.92;18.83;;;;;;;22.07;61.50;101647.78;5068471;28;20021;-62
2023/06/22 07:20:34;;;;;;;22.92;19.58;;;;;;;22.07;61.78;101639.28;5065993;28;20016;-63
2023/06/22 07:23:00;;;;;;;22.25;19.83;;;;;;;22.06;61.78;101634.81;5068398;28;20032;-63
2023/06/22 07:25:25;;;;;;;25.13;20.75;;;;;;;22.01;62.31;101644.22;5069504;28;20130;-62
2023/06/22 07:28:04;;;;;;;23.75;21.23;;;;;;;22.03;62.35;101646.72;5072082;28;20082;-63
2023/06/22 07:30:31;;;;;;;24.63;20.33;;;;;;;22.03;61.88;101641.91;5070183;28;20017;-63
2023/06/22 07:32:57;;;;;;;30.27;19.83;;;;;;;22.06;62.33;101649.78;5064579;28;20047;-63
2023/06/22 07:35:23;;;;;;;19.77;15.43;;;;;;;22.12;61.79;101641.19;5067299;28;20491;-63
2023/06/22 07:37:48;;;;;;;25.23;22.48;;;;;;;22.05;63.98;101638.78;5055323;28;20086;-62
2023/06/22 07:40:14;;;;;;;21.88;19.50;;;;;;;22.02;63.03;101630.91;5054045;28;20020;-63
2023/06/22 07:42:39;;;;;;;23.83;21.40;;;;;;;21.99;65.23;101621.06;5066912;28;20020;-59
2023/06/22 07:45:07;;;;;;;22.13;19.92;;;;;;;22.03;64.91;101612.81;5070458;28;20391;-60
2023/06/22 07:47:35;;;;;;;27.33;23.42;;;;;;;22.03;66.85;101609.97;5066950;28;20044;-60
2023/06/22 07:50:01;;;;;;;25.77;23.15;;;;;;;21.98;66.75;101604.44;5058623;28;20036;-62
2023/06/22 07:52:27;;;;;;;14.73;13.13;;;;;;;22.09;63.77;101605.91;5067477;28;20175;-62
2023/06/22 07:54:53;;;;;;;21.33;19.10;;;;;;;22.09;64.81;101593.75;5068618;28;20078;-62
2023/06/22 07:57:18;;;;;;;15.00;13.27;;;;;;;22.15;63.92;101582.06;5066571;28;20021;-62
2023/06/22 07:59:44;;;;;;;25.42;22.88;;;;;;;22.10;66.55;101570.81;5060206;28;20033;-62
2023/06/22 08:02:09;;;;;;;25.27;22.67;;;;;;;22.12;66.45;101565.69;5049648;28;20029;-62
2023/06/22 08:04:35;;;;;;;19.25;17.27;;;;;;;22.19;65.77;101566.13;5049700;28;20108;-62
2023/06/22 08:07:01;;;;;;;27.48;23.80;;;;;;;22.14;67.17;101563.41;5050280;28;20021;-62
2023/06/22 08:09:31;;;;;;;26.48;23.70;;;;;;;22.13;66.97;101558.94;5049130;28;20044;-62
2023/06/22 08:11:58;;;;;;;23.45;20.98;;;;;;;22.16;66.90;101549.78;5049155;28;20063;-63
2023/06/22 08:14:25;;;;;;;17.52;15.65;;;;;;;22.20;65.93;101545.19;5062191;28;20052;-62
2023/06/22 08:16:50;;;;;;;25.55;22.95;;;;;;;22.17;67.08;101545.84;5058964;28;20036;-62
2023/06/22 08:19:16;;;;;;;14.90;13.30;;;;;;;22.26;65.31;101543.94;5069391;28;20043;-62
2023/06/22 08:21:41;;;;;;;26.88;24.00;;;;;;;22.17;67.49;101540.19;5068880;28;20103;-63
2023/06/22 08:24:07;;;;;;;25.67;22.98;;;;;;;22.18;67.47;101536.19;5073000;28;20452;-62
2023/06/22 08:26:35;;;;;;;16.58;14.88;;;;;;;22.24;65.55;101537.78;5072876;28;20021;-62
2023/06/22 08:29:02;;;;;;;24.15;21.75;;;;;;;22.24;67.28;101537.78;5073339;28;20032;-62
2023/06/22 08:31:27;;;;;;;24.40;21.10;;;;;;;22.25;67.04;101538.59;5071634;28;20047;-63
2023/06/22 08:33:52;;;;;;;17.73;15.98;;;;;;;22.27;65.96;101537.13;5061828;28;20440;-62
2023/06/22 08:36:18;;;;;;;15.35;13.57;;;;;;;22.34;65.65;101544.34;5072377;28;20037;-62
2023/06/22 08:38:44;;;;;;;24.80;22.30;;;;;;;22.29;67.04;101543.31;5071832;28;20119;-62
2023/06/22 08:41:10;;;;;;;14.90;12.98;;;;;;;22.34;65.56;101552.84;5072675;28;20521;-62
2023/06/22 08:43:35;;;;;;;17.02;15.23;;;;;;;22.35;65.85;101541.19;5072706;28;20040;-62
2023/06/22 08:46:02;;;;;;;16.90;15.13;;;;;;;22.35;65.78;101540.34;5073503;28;20028;-62
2023/06/22 08:48:28;;;;;;;15.45;13.85;;;;;;;22.38;65.78;101539.72;5072724;28;20029;-62
2023/06/22 08:50:53;;;;;;;19.20;17.20;;;;;;;22.34;66.45;101531.03;5072691;28;20028;-62
2023/06/22 08:53:19;;;;;;;19.27;16.67;;;;;;;22.34;65.67;101533.88;5072163;28;20629;-62
2023/06/22 08:55:45;;;;;;;15.63;13.95;;;;;;;22.37;65.51;101529.59;5063496;28;20132;-63
2023/06/22 08:58:10;;;;;;;15.32;13.48;;;;;;;22.37;65.59;101532.41;5069226;28;20024;-63
2023/06/22 09:00:36;;;;;;;14.30;12.77;;;;;;;22.40;65.11;101526.09;5070173;28;20036;-63
2023/06/22 09:03:01;;;;;;;22.55;18.67;;;;;;;22.30;65.95;101522.34;5073221;28;20048;-63
2023/06/22 09:05:27;;;;;;;21.65;19.45;;;;;;;22.28;65.97;101526.63;5071669;28;20032;-63
2023/06/22 09:07:54;;;;;;;20.05;18.02;;;;;;;22.28;66.46;101512.50;5071584;28;20036;-63
2023/06/22 09:10:20;;;;;;;17.75;15.50;;;;;;;22.32;65.71;101515.53;5071910;28;20024;-62
2023/06/22 09:12:45;;;;;;;21.85;17.52;;;;;;;22.28;65.36;101512.50;5068206;28;20085;-63
2023/06/22 09:15:11;;;;;;;21.02;17.75;;;;;;;22.26;65.34;101507.16;5071975;28;20051;-63
2023/06/22 09:17:36;;;;;;;18.85;16.88;;;;;;;22.24;64.92;101508.63;5071777;28;20029;-64
2023/06/22 09:20:05;;;;;;;15.70;14.10;;;;;;;22.27;64.49;101510.84;5072112;28;20113;-63
2023/06/22 09:22:31;;;;;;;17.15;15.35;;;;;;;22.25;63.14;101508.34;5070326;28;20503;-63
2023/06/22 09:24:56;;;;;;;12.30;11.00;;;;;;;22.32;63.83;101507.88;5071252;28;20484;-61
2023/06/22 09:27:22;;;;;;;18.33;14.07;;;;;;;22.32;62.30;101512.69;5072445;28;20033;-63
2023/06/22 09:29:47;;;;;;;14.32;11.82;;;;;;;22.34;62.53;101507.59;5069113;28;20052;-63
2023/06/22 09:32:13;;;;;;;13.32;11.88;;;;;;;22.33;60.89;101514.41;5071948;28;20143;-63
2023/06/22 09:34:41;;;;;;;19.98;12.82;;;;;;;22.33;60.43;101505.91;5071072;28;20032;-61
2023/06/22 09:37:06;;;;;;;10.85;9.02;;;;;;;22.41;61.98;101514.47;5071459;28;20036;-61
2023/06/22 09:39:32;;;;;;;15.93;13.60;;;;;;;22.39;61.10;101507.47;5070501;28;20054;-61
2023/06/22 09:42:05;;;;;;;16.45;14.13;;;;;;;22.37;61.63;101507.78;5071943;28;20148;-62
2023/06/22 09:44:30;;;;;;;11.30;9.13;;;;;;;22.47;61.54;101510.38;5071915;28;20073;-62
2023/06/22 09:46:56;;;;;;;14.10;12.27;;;;;;;22.44;60.33;101513.00;5067191;28;20480;-62
2023/06/22 09:49:21;;;;;;;14.95;12.68;;;;;;;22.42;59.80;101496.34;5071360;28;20028;-62
2023/06/22 09:51:50;;;;;;;17.17;13.25;;;;;;;22.42;60.40;101498.34;5069953;28;20059;-62
2023/06/22 09:54:16;;;;;;;13.98;11.90;;;;;;;22.44;59.82;101496.03;5070533;28;20039;-62
2023/06/22 09:56:41;;;;;;;11.90;10.77;;;;;;;22.47;60.94;101493.41;5071717;28;20020;-62
2023/06/22 09:59:06;;;;;;;9.18;7.18;;;;;;;22.53;61.09;101502.63;5071394;28;20033;-63
2023/06/22 10:01:32;;;;;;;17.17;13.90;;;;;;;22.46;59.67;101500.22;5069978;28;20032;-62
2023/06/22 10:03:58;;;;;;;14.38;12.85;;;;;;;22.47;59.33;101501.88;5057578;28;20025;-63
2023/06/22 10:06:24;;;;;;;18.77;14.02;;;;;;;22.46;58.88;101496.56;5070139;28;20021;-63
2023/06/22 10:08:51;;;;;;;16.50;14.63;;;;;;;22.45;59.71;101494.88;5071130;28;20032;-63
2023/06/22 10:11:17;;;;;;;8.80;7.90;;;;;;;22.52;60.00;101495.28;5071519;28;20443;-63
2023/06/22 10:13:42;;;;;;;9.32;8.25;;;;;;;22.53;59.40;101496.97;5067938;28;20043;-63
2023/06/22 10:16:07;;;;;;;8.70;7.63;;;;;;;22.56;59.85;101499.16;5063213;28;20117;-62
2023/06/22 10:18:33;;;;;;;7.63;6.82;;;;;;;22.58;59.58;101499.66;5060889;28;20094;-62
2023/06/22 10:20:58;;;;;;;13.18;11.90;;;;;;;22.55;59.47;101495.47;5050720;28;20411;-63
2023/06/22 10:23:24;;;;;;;9.65;7.57;;;;;;;22.57;59.64;101503.66;5061102;28;20032;-62
2023/06/22 10:25:49;;;;;;;10.00;7.45;;;;;;;22.61;59.47;101499.03;5067413;28;20155;-62
2023/06/22 10:28:14;;;;;;;9.05;8.15;;;;;;;22.62;59.68;101494.22;5069063;28;20036;-62
2023/06/22 10:30:43;;;;;;;11.98;9.65;;;;;;;22.60;59.75;101497.38;5070847;28;20476;-62
2023/06/22 10:33:12;;;;;;;16.98;14.35;;;;;;;22.55;60.89;101509.63;5076887;28;20430;-62
2023/06/22 10:35:37;;;;;;;7.97;7.20;;;;;;;22.60;60.05;101514.34;5090050;28;20024;-62
2023/06/22 10:38:03;;;;;;;9.32;8.20;;;;;;;22.61;60.28;101513.19;5091061;28;20043;-63
2023/06/22 10:40:29;;;;;;;10.35;8.07;;;;;;;22.63;60.32;101515.69;5053622;28;20025;-62
2023/06/22 10:42:54;;;;;;;11.05;9.60;;;;;;;22.62;61.61;101517.66;5064699;28;20029;-62
2023/06/22 10:45:19;;;;;;;8.43;7.63;;;;;;;22.65;60.52;101531.19;5049950;28;20033;-62
2023/06/22 10:47:50;;;;;;;8.55;7.72;;;;;;;22.64;60.81;101538.00;5056524;28;20109;-63
2023/06/22 10:50:16;;;;;;;9.87;8.30;;;;;;;22.64;61.43;101532.34;5050926;28;20045;-62
2023/06/22 10:52:41;;;;;;;16.52;14.40;;;;;;;22.60;63.08;101542.63;5058829;28;20040;-63
2023/06/22 10:55:08;;;;;;;15.98;11.52;;;;;;;22.60;63.88;101541.78;5068761;28;20123;-63
2023/06/22 10:57:33;;;;;;;17.75;15.85;;;;;;;22.54;64.95;101547.56;5065575;28;20027;-64
2023/06/22 10:59:59;;;;;;;17.35;15.55;;;;;;;22.52;65.84;101540.56;5070450;28;20392;-64
2023/06/22 11:02:24;;;;;;;19.08;17.08;;;;;;;22.50;65.96;101537.19;5069949;28;20055;-63
2023/06/22 11:04:50;;;;;;;19.63;17.52;;;;;;;22.48;66.83;101525.38;5067844;28;20589;-63
2023/06/22 11:07:16;;;;;;;21.92;18.75;;;;;;;22.44;66.96;101532.78;5070021;28;20032;-63
2023/06/22 11:09:50;;;;;;;23.15;18.40;;;;;;;22.41;66.49;101536.28;5059290;28;20052;-63
2023/06/22 11:12:16;;;;;;;24.25;19.65;;;;;;;22.38;68.15;101546.22;5049593;28;20032;-63